21 a 30/11 - Patrón muy activo con pasaje de vaguadas región central

Avatar de Usuario
Ezequiel1995
Mensajes: 1688
Registrado: Mar Nov 12, 2019 4:50 pm
Ubicación: Merlo, Buenos Aires
Contactar:

Re: 21 a 30/11 - Patrón muy activo con pasaje de vaguadas región central

Mensaje por Ezequiel1995 » Vie Nov 29, 2019 10:46 am

Ya tan temprano? Joya.
Por acá ni una sola nube (Aún)
#MuerteALasLineas (by Fedex)
Aplicación Gustfront! 2.5

Avatar de Usuario
Fedex
Mensajes: 3145
Registrado: Jue Jul 17, 2014 3:30 pm
Ubicación: Villa Ballester, San Martin, Buenos Aires
Contactar:

Re: 21 a 30/11 - Patrón muy activo con pasaje de vaguadas región central

Mensaje por Fedex » Vie Nov 29, 2019 11:06 am

Bien seco. Hay que darle con una bazooka al CIN para que ascienda algo

La cortante alta es muy buena

Imagen
Cada vez que se superan los 24°C de Td, un gatito renace.

#MuerteALasLineas

El corazón late y es suficiente

Avatar de Usuario
Ale de Castelar
Mensajes: 28059
Registrado: Sab Mar 03, 2012 12:25 pm
Ubicación: Caballito

Re: 21 a 30/11 - Patrón muy activo con pasaje de vaguadas región central

Mensaje por Ale de Castelar » Vie Nov 29, 2019 11:50 am

Bari hoy
Adjuntos
EKjFNQJWsAAbVth.jpeg

Avatar de Usuario
Seba
Mensajes: 17143
Registrado: Mié Jul 15, 2009 3:31 pm
Ubicación: Palermo, CABA

Re: 21 a 30/11 - Patrón muy activo con pasaje de vaguadas región central

Mensaje por Seba » Vie Nov 29, 2019 11:51 am

Fedex escribió:Bien seco. Hay que darle con una bazooka al CIN para que ascienda algo

La cortante alta es muy buena

Imagen
Jaja pero no es nada representativo ese sondeo de esta situación, la banda de humedad pasa tarde com buenos valores en 700 y 850.
Con raíces pero en libertad.

Avatar de Usuario
Diecha
Mensajes: 14647
Registrado: Jue Ago 25, 2011 9:31 pm
Ubicación: Lomas de Zamora

Re: 21 a 30/11 - Patrón muy activo con pasaje de vaguadas región central

Mensaje por Diecha » Vie Nov 29, 2019 12:00 pm



Imagen

Avatar de Usuario
Diecha
Mensajes: 14647
Registrado: Jue Ago 25, 2011 9:31 pm
Ubicación: Lomas de Zamora

Re: 21 a 30/11 - Patrón muy activo con pasaje de vaguadas región central

Mensaje por Diecha » Vie Nov 29, 2019 12:18 pm

- San Fernando 12 hs: SADF 291500Z 31014KT 290V350 CAVOK 29/13 Q1005
- Aeroparque 12 hs: SABE 291500Z 35011KT CAVOK 27/16 Q1005
- Ezeiza 12 hs: SAEZ 291500Z 34013G23KT CAVOK 29/13 Q1004 (ráfaga de 43 Km/h)

Imagen
Imagen
Imagen
Última edición por Diecha el Vie Nov 29, 2019 12:35 pm, editado 1 vez en total.

maatii96
Mensajes: 4827
Registrado: Lun Abr 16, 2012 7:07 pm

Re: 21 a 30/11 - Patrón muy activo con pasaje de vaguadas región central

Mensaje por maatii96 » Vie Nov 29, 2019 12:28 pm

Bastante ventosa la cosa eh. Y realmente se siente el calor.

Rapidito volaron las tormentas de la PBA.

Avatar de Usuario
Ale de Castelar
Mensajes: 28059
Registrado: Sab Mar 03, 2012 12:25 pm
Ubicación: Caballito

Re: 21 a 30/11 - Patrón muy activo con pasaje de vaguadas región central

Mensaje por Ale de Castelar » Vie Nov 29, 2019 12:39 pm

Mar del Plata
Adjuntos
IMG-20191129-WA0059.jpg

Avatar de Usuario
Diecha
Mensajes: 14647
Registrado: Jue Ago 25, 2011 9:31 pm
Ubicación: Lomas de Zamora

Re: 21 a 30/11 - Patrón muy activo con pasaje de vaguadas región central

Mensaje por Diecha » Vie Nov 29, 2019 12:41 pm

Junín:
Imagen
www.twitter.com/AleliJunin/status/1200437968223248384

- Junín 12 hs: SAAJ 291500Z 34013G28KT 9999 FEW030 FEW045CB 30/15 Q1003 (ráfaga de 52 Km/h)

Imagen
Última edición por Diecha el Vie Nov 29, 2019 1:49 pm, editado 1 vez en total.

Avatar de Usuario
juan_aae
Mensajes: 197
Registrado: Mié Sep 03, 2014 10:32 pm
Ubicación: Río Cuarto, Córdoba
Contactar:

Re: 21 a 30/11 - Patrón muy activo con pasaje de vaguadas región central

Mensaje por juan_aae » Vie Nov 29, 2019 1:14 pm

Río Cuarto ahora. Nos invadió el torrecúmulus. Chaparrones débiles.
Imagen
Tipo 12:40 horas. Río IV.
Imagen
13:15 hrs: Primer trueno.
Última edición por juan_aae el Vie Nov 29, 2019 1:17 pm, editado 1 vez en total.
Me pidió tiempo. Le dije "Cubierto con tormenta. 22°C"

Responder